createdAt,value
2019-04-30T00:01:48.596Z,22.45
2019-04-30T00:04:25.384Z,21.50
2019-04-30T00:06:57.120Z,20.97
2019-04-30T00:09:29.317Z,21.68
2019-04-30T00:12:01.385Z,21.60
2019-04-30T00:14:38.601Z,20.50
2019-04-30T00:17:06.390Z,21.10
2019-04-30T00:19:38.017Z,20.77
2019-04-30T00:22:09.339Z,19.35
2019-04-30T00:24:46.846Z,20.15
2019-04-30T00:27:15.122Z,21.05
2019-04-30T00:29:46.617Z,19.30
2019-04-30T00:32:17.908Z,19.62
2019-04-30T00:34:49.592Z,18.82
2019-04-30T00:37:20.945Z,19.02
2019-04-30T00:39:53.052Z,17.12
2019-04-30T00:42:28.083Z,17.90
2019-04-30T00:44:59.647Z,17.05
2019-04-30T00:47:30.375Z,17.42
2019-04-30T00:50:01.960Z,16.70
2019-04-30T00:52:35.199Z,17.17
2019-04-30T00:55:09.080Z,16.42
2019-04-30T00:57:43.650Z,16.17
2019-04-30T01:00:19.679Z,16.75
2019-04-30T01:03:09.362Z,16.42
2019-04-30T01:05:46.453Z,16.00
2019-04-30T01:08:15.367Z,15.23
2019-04-30T01:10:46.916Z,15.38
2019-04-30T01:13:19.216Z,15.40
2019-04-30T01:15:52.545Z,14.93
2019-04-30T01:18:28.526Z,14.58
2019-04-30T01:20:58.701Z,14.13
2019-04-30T01:23:30.425Z,13.58
2019-04-30T01:26:02.133Z,14.25
2019-04-30T01:28:33.501Z,13.83
2019-04-30T01:31:04.975Z,13.60
2019-04-30T01:33:36.192Z,13.43
2019-04-30T01:36:09.532Z,13.08
2019-04-30T01:38:44.717Z,11.43
2019-04-30T01:41:13.648Z,12.23
2019-04-30T01:43:45.148Z,12.25
2019-04-30T01:46:16.434Z,12.85
2019-04-30T01:48:51.930Z,13.28
2019-04-30T01:51:22.057Z,12.18
2019-04-30T01:53:53.672Z,11.83
2019-04-30T01:56:32.155Z,11.97
2019-04-30T01:59:09.187Z,11.65
2019-04-30T02:01:42.684Z,11.90
2019-04-30T02:04:14.315Z,12.95
2019-04-30T02:06:46.035Z,12.23
2019-04-30T02:09:18.914Z,12.80
2019-04-30T02:11:50.641Z,12.23
2019-04-30T02:14:21.845Z,12.50
2019-04-30T02:16:53.126Z,12.18
2019-04-30T02:19:24.337Z,12.85
2019-04-30T02:21:55.731Z,13.25
2019-04-30T02:24:28.869Z,14.18
2019-04-30T02:27:00.248Z,14.43
2019-04-30T02:29:31.776Z,13.70
2019-04-30T02:32:03.083Z,14.45
2019-04-30T02:34:44.348Z,14.28
2019-04-30T02:37:21.081Z,14.13
2019-04-30T02:39:52.348Z,14.30
2019-04-30T02:42:25.027Z,13.22
2019-04-30T02:45:00.118Z,11.73
2019-04-30T02:47:33.643Z,11.95
2019-04-30T02:50:15.376Z,12.07
2019-04-30T02:52:43.166Z,12.05
2019-04-30T02:55:19.613Z,10.82
2019-04-30T02:57:51.161Z,11.88
2019-04-30T03:00:22.381Z,11.43
2019-04-30T03:02:53.622Z,11.12
2019-04-30T03:05:24.944Z,11.43
2019-04-30T03:07:56.607Z,11.45
2019-04-30T03:10:30.189Z,10.88
2019-04-30T03:13:00.902Z,10.18
2019-04-30T03:15:32.134Z,10.00
2019-04-30T03:18:16.872Z,10.80
2019-04-30T03:21:09.618Z,10.08
2019-04-30T03:23:40.036Z,9.95
2019-04-30T03:26:12.983Z,10.43
2019-04-30T03:28:44.722Z,9.60
2019-04-30T03:31:16.629Z,9.78
2019-04-30T03:33:51.981Z,10.60
2019-04-30T03:36:22.009Z,9.23
2019-04-30T03:38:54.107Z,9.80
2019-04-30T03:41:25.416Z,9.13
2019-04-30T03:44:16.062Z,9.08
2019-04-30T03:46:30.211Z,9.25
2019-04-30T03:49:01.769Z,8.48
2019-04-30T03:51:33.031Z,8.83
2019-04-30T03:54:04.985Z,8.63
2019-04-30T03:56:36.263Z,9.15
2019-04-30T03:59:10.105Z,9.20
2019-04-30T04:02:05.954Z,8.33
2019-04-30T04:05:05.384Z,7.62
2019-04-30T04:07:59.835Z,7.53
2019-04-30T04:10:53.098Z,8.08
2019-04-30T04:13:23.897Z,8.40
2019-04-30T04:15:59.898Z,7.90
2019-04-30T04:18:31.989Z,8.38
2019-04-30T04:21:11.708Z,7.92
2019-04-30T04:23:39.624Z,6.87
2019-04-30T04:26:09.893Z,6.80
2019-04-30T04:28:43.484Z,8.08
2019-04-30T04:31:14.342Z,7.67
2019-04-30T04:33:46.109Z,7.12
2019-04-30T04:36:17.300Z,6.72
2019-04-30T04:38:50.651Z,6.47
2019-04-30T04:41:22.187Z,6.25
2019-04-30T04:43:53.813Z,6.42
2019-04-30T04:46:25.360Z,6.55
2019-04-30T04:48:59.443Z,7.05
2019-04-30T04:51:38.081Z,5.95
2019-04-30T04:54:03.500Z,6.33
2019-04-30T04:56:35.112Z,5.67
2019-04-30T04:59:06.437Z,6.58
2019-04-30T05:01:38.786Z,6.65
2019-04-30T05:04:11.839Z,7.87
2019-04-30T05:06:43.582Z,5.87
2019-04-30T05:09:14.894Z,5.72
2019-04-30T05:11:46.462Z,5.90
2019-04-30T05:14:18.960Z,6.42
2019-04-30T05:16:50.779Z,6.72
2019-04-30T05:19:22.273Z,6.70
2019-04-30T05:21:53.426Z,7.03
2019-04-30T05:24:24.779Z,6.85
2019-04-30T05:26:56.098Z,6.90
2019-04-30T05:29:28.912Z,6.70
2019-04-30T05:32:01.327Z,5.97
2019-04-30T05:34:32.618Z,5.53
2019-04-30T05:37:04.249Z,6.53
2019-04-30T05:39:35.398Z,5.47
2019-04-30T05:42:08.773Z,5.85
2019-04-30T05:44:40.126Z,6.12
2019-04-30T05:47:11.718Z,5.72
2019-04-30T05:49:42.845Z,6.65
2019-04-30T05:52:14.097Z,7.28
2019-04-30T05:54:45.394Z,5.40
2019-04-30T05:57:16.800Z,5.87
2019-04-30T05:59:49.364Z,5.22
2019-04-30T06:02:20.756Z,10.80
2019-04-30T06:04:52.167Z,6.72
2019-04-30T06:07:24.831Z,5.53
2019-04-30T06:10:02.257Z,5.30
2019-04-30T06:12:55.047Z,5.08
2019-04-30T06:15:39.929Z,6.35
2019-04-30T06:18:14.025Z,6.42
2019-04-30T06:20:44.697Z,5.30
2019-04-30T06:23:16.318Z,4.45
2019-04-30T06:25:57.345Z,4.47
2019-04-30T06:28:23.091Z,4.80
2019-04-30T06:30:54.788Z,4.35
2019-04-30T06:33:26.113Z,4.60
2019-04-30T06:35:59.016Z,4.40
2019-04-30T06:38:30.398Z,4.35
2019-04-30T06:41:01.818Z,4.67
2019-04-30T06:43:33.746Z,5.05
2019-04-30T06:46:05.756Z,4.60
2019-04-30T06:48:39.223Z,4.42
2019-04-30T06:51:10.774Z,5.50
2019-04-30T06:53:42.185Z,4.50
2019-04-30T06:56:14.205Z,4.47
2019-04-30T06:58:45.851Z,4.22
2019-04-30T07:01:18.957Z,4.50
2019-04-30T07:03:50.299Z,4.62
2019-04-30T07:06:29.614Z,4.70
2019-04-30T07:09:19.740Z,4.53
2019-04-30T07:12:01.682Z,4.58
2019-04-30T07:14:33.317Z,5.33
2019-04-30T07:17:05.803Z,4.72
2019-04-30T07:19:51.068Z,4.72
2019-04-30T07:22:12.086Z,5.20
2019-04-30T07:24:43.664Z,4.85
2019-04-30T07:27:14.817Z,4.92
2019-04-30T07:29:46.002Z,4.97
2019-04-30T07:32:19.738Z,5.20
2019-04-30T07:34:50.580Z,5.10
2019-04-30T07:37:24.732Z,4.92
2019-04-30T07:39:55.294Z,5.00
2019-04-30T07:42:26.962Z,4.45
2019-04-30T07:45:00.694Z,4.53
2019-04-30T07:47:31.913Z,4.42
2019-04-30T07:50:03.198Z,4.58
2019-04-30T07:52:35.527Z,4.30
2019-04-30T07:55:09.753Z,4.40
2019-04-30T07:57:41.206Z,4.58
2019-04-30T08:00:12.461Z,4.65
2019-04-30T08:02:51.780Z,4.47
2019-04-30T08:05:29.993Z,4.92
2019-04-30T08:08:16.812Z,4.80
2019-04-30T08:10:34.268Z,10.00
2019-04-30T08:13:10.113Z,4.33
2019-04-30T08:15:42.143Z,4.90
2019-04-30T08:18:12.190Z,4.80
2019-04-30T08:20:43.456Z,4.22
2019-04-30T08:23:31.491Z,5.22
2019-04-30T08:25:48.998Z,5.03
2019-04-30T08:28:21.134Z,4.92
2019-04-30T08:30:52.385Z,5.03
2019-04-30T08:33:23.713Z,4.87
2019-04-30T08:35:56.278Z,5.20
2019-04-30T08:38:27.624Z,4.65
2019-04-30T08:41:00.857Z,4.65
2019-04-30T08:43:32.144Z,4.87
2019-04-30T08:46:03.736Z,4.53
2019-04-30T08:48:49.956Z,4.97
2019-04-30T08:51:10.018Z,4.92
2019-04-30T08:53:41.771Z,5.12
2019-04-30T08:56:13.225Z,4.55
2019-04-30T08:58:44.487Z,4.55
2019-04-30T09:01:17.285Z,4.50
2019-04-30T09:03:51.391Z,4.92
2019-04-30T09:06:29.069Z,6.67
2019-04-30T09:09:20.763Z,5.17
2019-04-30T09:11:55.584Z,6.70
2019-04-30T09:14:25.612Z,4.92
2019-04-30T09:16:56.799Z,4.60
2019-04-30T09:19:29.734Z,5.08
2019-04-30T09:22:01.367Z,4.90
2019-04-30T09:24:33.040Z,5.50
2019-04-30T09:27:05.638Z,5.08
2019-04-30T09:29:39.079Z,4.40
2019-04-30T09:32:10.443Z,4.87
2019-04-30T09:34:42.062Z,4.80
2019-04-30T09:37:13.384Z,4.55
2019-04-30T09:39:44.509Z,4.55
2019-04-30T09:42:15.660Z,4.65
2019-04-30T09:44:49.216Z,4.83
2019-04-30T09:47:20.743Z,4.72
2019-04-30T09:49:51.958Z,4.30
2019-04-30T09:52:23.307Z,4.50
2019-04-30T09:54:54.535Z,4.15
2019-04-30T09:57:26.126Z,4.83
2019-04-30T09:59:57.337Z,4.70
2019-04-30T10:02:29.067Z,4.90
2019-04-30T10:05:00.947Z,4.83
2019-04-30T10:07:34.052Z,4.45
2019-04-30T10:10:08.871Z,4.80
2019-04-30T10:12:39.273Z,4.83
2019-04-30T10:15:13.686Z,5.35
2019-04-30T10:17:45.548Z,4.42
2019-04-30T10:20:18.803Z,4.15
2019-04-30T10:22:51.221Z,4.83
2019-04-30T10:25:22.817Z,5.60
2019-04-30T10:27:54.148Z,4.83
2019-04-30T10:30:31.759Z,5.03
2019-04-30T10:33:03.102Z,4.97
2019-04-30T10:35:34.420Z,5.12
2019-04-30T10:38:06.114Z,4.67
2019-04-30T10:40:39.000Z,4.20
2019-04-30T10:43:10.536Z,4.20
2019-04-30T10:45:42.609Z,4.30
2019-04-30T10:48:13.925Z,4.40
2019-04-30T10:50:45.309Z,4.65
2019-04-30T10:53:16.726Z,3.65
2019-04-30T10:55:48.582Z,4.22
2019-04-30T10:58:20.085Z,3.90
2019-04-30T11:00:51.445Z,4.00
2019-04-30T11:03:23.345Z,8.30
2019-04-30T11:05:54.638Z,4.10
2019-04-30T11:08:26.618Z,4.20
2019-04-30T11:10:57.919Z,4.30
2019-04-30T11:13:29.820Z,4.25
2019-04-30T11:16:12.168Z,4.15
2019-04-30T11:18:34.614Z,4.40
2019-04-30T11:21:06.235Z,4.53
2019-04-30T11:23:39.491Z,4.15
2019-04-30T11:26:11.553Z,5.25
2019-04-30T11:28:43.583Z,4.50
2019-04-30T11:31:34.395Z,4.70
2019-04-30T11:34:07.677Z,4.85
2019-04-30T11:36:39.058Z,3.80
2019-04-30T11:39:18.594Z,4.55
2019-04-30T11:41:50.512Z,3.87
2019-04-30T11:44:30.260Z,4.72
2019-04-30T11:47:32.409Z,4.15
2019-04-30T11:50:05.973Z,4.65
2019-04-30T11:52:37.311Z,4.40
2019-04-30T11:55:11.753Z,4.37
2019-04-30T11:57:43.113Z,4.08
2019-04-30T12:00:23.813Z,3.80
2019-04-30T12:02:55.392Z,4.30
2019-04-30T12:05:26.736Z,3.95
2019-04-30T12:08:11.128Z,3.85
2019-04-30T12:11:05.385Z,3.80
2019-04-30T12:13:37.346Z,4.05
2019-04-30T12:16:09.137Z,3.42
2019-04-30T12:18:42.267Z,4.60
2019-04-30T12:21:13.789Z,5.50
2019-04-30T12:23:45.629Z,3.98
2019-04-30T12:26:18.938Z,4.10
2019-04-30T12:28:49.910Z,3.47
2019-04-30T12:31:21.975Z,5.10
2019-04-30T12:33:53.615Z,4.22
2019-04-30T12:36:25.165Z,4.00
2019-04-30T12:38:56.688Z,3.70
2019-04-30T12:41:28.267Z,3.42
2019-04-30T12:44:00.238Z,3.90
2019-04-30T12:46:31.789Z,3.33
2019-04-30T12:49:11.217Z,3.80
2019-04-30T12:51:58.725Z,3.87
2019-04-30T12:54:44.650Z,4.60
2019-04-30T12:57:24.802Z,3.42
2019-04-30T12:59:56.122Z,3.22
2019-04-30T13:02:29.025Z,2.72
2019-04-30T13:05:00.704Z,2.98
2019-04-30T13:07:32.898Z,3.47
2019-04-30T13:10:06.198Z,3.30
2019-04-30T13:12:38.596Z,3.10
2019-04-30T13:15:11.638Z,3.70
2019-04-30T13:17:42.925Z,3.25
2019-04-30T13:20:21.269Z,3.25
2019-04-30T13:22:48.907Z,3.47
2019-04-30T13:25:29.927Z,3.62
2019-04-30T13:27:56.540Z,3.60
2019-04-30T13:30:30.040Z,3.52
2019-04-30T13:33:09.718Z,3.35
2019-04-30T13:35:41.026Z,3.37
2019-04-30T13:38:20.682Z,3.58
2019-04-30T13:40:58.906Z,3.67
2019-04-30T13:43:48.690Z,3.00
2019-04-30T13:46:20.113Z,3.65
2019-04-30T13:48:51.413Z,3.60
2019-04-30T13:51:22.620Z,3.40
2019-04-30T13:53:54.783Z,3.15
2019-04-30T13:56:26.215Z,3.62
2019-04-30T13:58:58.068Z,3.40
2019-04-30T14:01:29.652Z,4.12
2019-04-30T14:04:16.448Z,4.17
2019-04-30T14:07:13.368Z,3.67
2019-04-30T14:09:44.697Z,4.70
2019-04-30T14:12:17.380Z,4.22
2019-04-30T14:14:49.364Z,4.70
2019-04-30T14:17:20.905Z,4.35
2019-04-30T14:19:52.488Z,4.67
2019-04-30T14:22:24.098Z,4.90
2019-04-30T14:24:56.249Z,4.15
2019-04-30T14:27:27.817Z,4.45
2019-04-30T14:29:59.423Z,4.75
2019-04-30T14:32:32.058Z,4.58
2019-04-30T14:35:03.921Z,4.65
2019-04-30T14:37:35.759Z,4.83
2019-04-30T14:40:12.252Z,4.17
2019-04-30T14:42:48.498Z,3.80
2019-04-30T14:45:29.052Z,4.83
2019-04-30T14:48:12.915Z,4.45
2019-04-30T14:50:44.797Z,4.25
2019-04-30T14:53:23.442Z,4.50
2019-04-30T14:56:26.512Z,4.70
2019-04-30T14:59:20.759Z,4.83
2019-04-30T15:01:59.853Z,5.10
2019-04-30T15:04:32.328Z,4.83
2019-04-30T15:07:04.012Z,5.37
2019-04-30T15:09:35.608Z,5.00
2019-04-30T15:12:07.147Z,6.42
2019-04-30T15:14:38.806Z,6.22
2019-04-30T15:17:12.075Z,5.45
2019-04-30T15:19:43.441Z,5.45
2019-04-30T15:22:15.064Z,4.80
2019-04-30T15:24:46.647Z,6.70
2019-04-30T15:27:19.154Z,5.83
2019-04-30T15:29:57.129Z,5.65
2019-04-30T15:32:23.383Z,5.35
2019-04-30T15:34:54.917Z,5.10
2019-04-30T15:37:26.342Z,5.00
2019-04-30T15:39:59.117Z,5.10
2019-04-30T15:42:30.653Z,5.12
2019-04-30T15:45:01.962Z,5.17
2019-04-30T15:47:33.719Z,6.55
2019-04-30T15:50:06.875Z,5.78
2019-04-30T15:52:38.736Z,5.17
2019-04-30T15:55:12.312Z,5.20
2019-04-30T15:57:59.443Z,5.50
2019-04-30T16:00:32.976Z,6.58
2019-04-30T16:03:10.083Z,13.85
2019-04-30T16:05:44.044Z,6.08
2019-04-30T16:08:35.402Z,7.80
2019-04-30T16:11:34.616Z,7.30
2019-04-30T16:14:14.664Z,6.40
2019-04-30T16:16:51.697Z,5.75
2019-04-30T16:19:23.148Z,5.83
2019-04-30T16:21:54.416Z,5.47
2019-04-30T16:24:25.946Z,5.92
2019-04-30T16:26:59.189Z,5.65
2019-04-30T16:29:30.609Z,6.33
2019-04-30T16:32:02.962Z,5.92
2019-04-30T16:34:34.908Z,6.53
2019-04-30T16:37:06.669Z,6.17
2019-04-30T16:39:39.790Z,5.58
2019-04-30T16:42:12.731Z,5.85
2019-04-30T16:44:44.407Z,6.60
2019-04-30T16:47:17.024Z,5.35
2019-04-30T16:49:49.652Z,7.72
2019-04-30T16:52:24.257Z,7.53
2019-04-30T16:54:56.041Z,6.30
2019-04-30T16:57:30.179Z,5.90
2019-04-30T17:00:01.511Z,5.80
2019-04-30T17:02:32.872Z,6.67
2019-04-30T17:05:19.901Z,7.10
2019-04-30T17:08:01.858Z,7.37
2019-04-30T17:10:51.364Z,6.03
2019-04-30T17:13:44.883Z,5.80
2019-04-30T17:16:19.568Z,6.90
2019-04-30T17:18:51.089Z,9.05
2019-04-30T17:21:23.243Z,7.65
2019-04-30T17:23:54.912Z,8.23
2019-04-30T17:26:26.214Z,8.33
2019-04-30T17:28:59.725Z,7.53
2019-04-30T17:31:30.836Z,7.35
2019-04-30T17:34:02.538Z,11.60
2019-04-30T17:36:34.306Z,8.18
2019-04-30T17:39:10.977Z,8.53
2019-04-30T17:41:42.942Z,7.50
2019-04-30T17:44:15.615Z,7.28
2019-04-30T17:46:46.917Z,9.53
2019-04-30T17:49:18.984Z,10.90
2019-04-30T17:51:51.809Z,10.80
2019-04-30T17:54:23.210Z,10.28
2019-04-30T17:56:54.845Z,8.20
2019-04-30T17:59:26.359Z,8.88
2019-04-30T18:02:01.566Z,8.85
2019-04-30T18:04:33.490Z,8.60
2019-04-30T18:07:04.998Z,9.98
2019-04-30T18:09:36.356Z,10.58
2019-04-30T18:12:09.350Z,10.35
2019-04-30T18:14:40.746Z,11.00
2019-04-30T18:17:11.994Z,10.60
2019-04-30T18:19:49.831Z,10.43
2019-04-30T18:22:40.442Z,11.33
2019-04-30T18:25:33.443Z,11.33
2019-04-30T18:28:05.266Z,11.25
2019-04-30T18:30:39.091Z,11.25
2019-04-30T18:33:12.053Z,11.00
2019-04-30T18:35:43.397Z,10.13
2019-04-30T18:38:17.638Z,10.38
2019-04-30T18:40:49.541Z,11.60
2019-04-30T18:43:21.335Z,10.88
2019-04-30T18:45:52.569Z,17.10
2019-04-30T18:48:24.991Z,17.45
2019-04-30T18:50:56.271Z,18.48
2019-04-30T18:53:29.937Z,16.42
2019-04-30T18:56:01.550Z,15.50
2019-04-30T18:58:40.036Z,16.40
2019-04-30T19:01:09.260Z,17.27
2019-04-30T19:03:41.029Z,14.47
2019-04-30T19:06:23.843Z,19.27
2019-04-30T19:09:11.741Z,16.45
2019-04-30T19:11:49.893Z,14.38
2019-04-30T19:14:39.411Z,13.93
2019-04-30T19:17:25.934Z,12.50
2019-04-30T19:20:19.054Z,11.73
2019-04-30T19:22:51.425Z,11.40
2019-04-30T19:25:22.987Z,13.25
2019-04-30T19:27:54.524Z,11.30
2019-04-30T19:30:26.483Z,12.35
2019-04-30T19:32:58.927Z,12.75
2019-04-30T19:35:30.361Z,15.10
2019-04-30T19:38:01.980Z,14.30
2019-04-30T19:40:34.324Z,14.55
2019-04-30T19:43:05.580Z,15.13
2019-04-30T19:45:37.572Z,14.43
2019-04-30T19:48:09.082Z,16.07
2019-04-30T19:50:40.824Z,15.30
2019-04-30T19:53:12.003Z,15.18
2019-04-30T19:55:43.508Z,13.70
2019-04-30T19:58:26.163Z,15.75
2019-04-30T20:00:49.727Z,17.52
2019-04-30T20:03:20.834Z,17.60
2019-04-30T20:05:52.108Z,17.98
2019-04-30T20:08:23.707Z,18.73
2019-04-30T20:10:54.926Z,18.80
2019-04-30T20:13:35.717Z,19.42
2019-04-30T20:15:59.504Z,20.20
2019-04-30T20:18:30.948Z,20.40
2019-04-30T20:21:04.946Z,22.93
2019-04-30T20:23:36.147Z,25.75
2019-04-30T20:26:07.466Z,27.22
2019-04-30T20:28:42.248Z,29.27
2019-04-30T20:31:12.117Z,28.35
2019-04-30T20:33:43.722Z,30.72
2019-04-30T20:36:14.926Z,32.83
2019-04-30T20:39:11.284Z,29.00
2019-04-30T20:41:42.783Z,29.40
2019-04-30T20:44:14.114Z,27.80
2019-04-30T20:46:45.688Z,29.30
2019-04-30T20:49:19.090Z,28.52
2019-04-30T20:51:55.578Z,27.17
2019-04-30T20:54:23.043Z,28.23
2019-04-30T20:56:54.349Z,27.67
2019-04-30T20:59:26.381Z,28.17
2019-04-30T21:01:58.184Z,32.38
2019-04-30T21:04:30.043Z,29.67
2019-04-30T21:07:01.362Z,32.73
2019-04-30T21:09:35.607Z,31.57
2019-04-30T21:12:09.021Z,32.13
2019-04-30T21:14:40.599Z,30.32
2019-04-30T21:17:12.945Z,30.05
2019-04-30T21:19:44.572Z,23.85
2019-04-30T21:22:15.897Z,27.10
2019-04-30T21:24:47.095Z,26.05
2019-04-30T21:27:18.753Z,28.40
2019-04-30T21:29:50.238Z,29.57
2019-04-30T21:32:29.023Z,30.35
2019-04-30T21:35:28.918Z,29.25
2019-04-30T21:38:01.703Z,29.30
2019-04-30T21:40:33.380Z,29.98
2019-04-30T21:43:05.038Z,29.30
2019-04-30T21:45:36.441Z,28.90
2019-04-30T21:48:09.145Z,26.70
2019-04-30T21:50:40.598Z,31.23
2019-04-30T21:53:12.199Z,31.27
2019-04-30T21:55:43.757Z,35.23
2019-04-30T21:58:14.993Z,40.23
2019-04-30T22:01:04.729Z,37.15
2019-04-30T22:03:39.421Z,43.83
2019-04-30T22:06:10.941Z,42.10
2019-04-30T22:08:42.440Z,41.58
2019-04-30T22:11:14.664Z,42.27
2019-04-30T22:13:45.859Z,46.02
2019-04-30T22:16:20.050Z,44.75
2019-04-30T22:18:50.497Z,47.45
2019-04-30T22:21:22.037Z,52.50
2019-04-30T22:23:53.907Z,49.42
2019-04-30T22:26:25.357Z,52.53
2019-04-30T22:28:56.581Z,50.12
2019-04-30T22:31:29.507Z,49.40
2019-04-30T22:34:01.336Z,50.35
2019-04-30T22:36:40.199Z,50.15
2019-04-30T22:39:35.208Z,56.90
2019-04-30T22:42:36.662Z,58.50
2019-04-30T22:45:33.201Z,61.63
2019-04-30T22:48:04.495Z,53.05
2019-04-30T22:50:36.239Z,49.70
2019-04-30T22:53:07.525Z,49.50
2019-04-30T22:55:38.710Z,50.35
2019-04-30T22:58:09.999Z,47.27
2019-04-30T23:00:43.889Z,51.05
2019-04-30T23:03:20.083Z,48.05
2019-04-30T23:05:51.701Z,45.98
2019-04-30T23:08:23.471Z,36.80
2019-04-30T23:10:55.021Z,37.48
2019-04-30T23:13:26.700Z,43.42
2019-04-30T23:15:58.045Z,44.38
2019-04-30T23:18:32.177Z,44.00
2019-04-30T23:21:04.044Z,45.50
2019-04-30T23:23:36.552Z,48.75
2019-04-30T23:26:09.069Z,49.55
2019-04-30T23:28:40.279Z,48.85
2019-04-30T23:31:11.676Z,48.78
2019-04-30T23:33:42.836Z,46.08
2019-04-30T23:36:13.952Z,50.63
2019-04-30T23:38:45.148Z,51.98
2019-04-30T23:41:16.335Z,51.98
2019-04-30T23:43:47.545Z,54.38
2019-04-30T23:46:19.548Z,52.25
2019-04-30T23:48:51.103Z,48.60
2019-04-30T23:51:22.692Z,51.15
2019-04-30T23:53:54.274Z,50.80
2019-04-30T23:56:25.472Z,53.50
2019-04-30T23:58:56.699Z,54.27
